OLJ weather

North West Santo Airport
Olpoi, Sanma, Vanuatu

Public forecast

Using degrees Celsius for public forecast. Weather courtesy of forecast.io.

METAR (pilot weather report)

Closest report is Santo Pekoa International Airport, 53.6 nm (99.2 km) SE. Retrieved 2019/06/20 01:00 UTC (11 minutes ago):

NVSS 200100Z 13010KT 9999 BKN022 28/23 Q1012

TAF (pilot weather forecast)

Forecast is more than 12 hours old.

Closest forecast is Santo Pekoa International Airport, 53.6 nm (99.2 km) SE. Retrieved 2019/06/19 00:34 UTC (1 day ago):

TAF NVSS 192220Z 2000/2024 13012KT 9999 SCT020 BKN040 INTER 2000/2006 9000 -SHRA BKN018 OVC040